sensor_id;sensor_type;location;lat;lon;timestamp;temperature;humidity
22418;DHT22;11376;50.932;4.442;2023-05-02T00:01:54;10.70;99.90
22418;DHT22;11376;50.932;4.442;2023-05-02T00:04:20;10.70;99.90
22418;DHT22;11376;50.932;4.442;2023-05-02T00:06:46;10.70;99.90
22418;DHT22;11376;50.932;4.442;2023-05-02T00:09:11;10.70;99.90
22418;DHT22;11376;50.932;4.442;2023-05-02T00:11:37;10.60;99.90
22418;DHT22;11376;50.932;4.442;2023-05-02T00:14:02;10.60;99.90
22418;DHT22;11376;50.932;4.442;2023-05-02T00:16:28;10.70;99.90
22418;DHT22;11376;50.932;4.442;2023-05-02T00:18:54;10.80;99.90
22418;DHT22;11376;50.932;4.442;2023-05-02T00:21:19;10.90;99.90
22418;DHT22;11376;50.932;4.442;2023-05-02T00:23:45;10.90;99.90
22418;DHT22;11376;50.932;4.442;2023-05-02T00:26:10;11.00;99.90
22418;DHT22;11376;50.932;4.442;2023-05-02T00:28:36;11.10;99.90
22418;DHT22;11376;50.932;4.442;2023-05-02T00:31:03;11.20;99.90
22418;DHT22;11376;50.932;4.442;2023-05-02T00:33:28;11.20;99.90
22418;DHT22;11376;50.932;4.442;2023-05-02T00:35:54;11.20;99.90
22418;DHT22;11376;50.932;4.442;2023-05-02T00:38:19;11.20;99.90
22418;DHT22;11376;50.932;4.442;2023-05-02T00:40:48;11.30;99.90
22418;DHT22;11376;50.932;4.442;2023-05-02T00:43:15;11.30;99.90
22418;DHT22;11376;50.932;4.442;2023-05-02T00:45:41;11.20;99.90
22418;DHT22;11376;50.932;4.442;2023-05-02T00:48:08;11.30;99.90
22418;DHT22;11376;50.932;4.442;2023-05-02T00:50:36;11.40;99.90
22418;DHT22;11376;50.932;4.442;2023-05-02T00:53:03;11.50;99.90
22418;DHT22;11376;50.932;4.442;2023-05-02T00:55:29;11.50;99.90
22418;DHT22;11376;50.932;4.442;2023-05-02T00:57:55;11.70;99.90
22418;DHT22;11376;50.932;4.442;2023-05-02T01:00:21;11.60;99.90
22418;DHT22;11376;50.932;4.442;2023-05-02T01:02:52;11.60;99.90
22418;DHT22;11376;50.932;4.442;2023-05-02T01:13:11;11.70;99.90
22418;DHT22;11376;50.932;4.442;2023-05-02T01:15:38;11.70;99.90
22418;DHT22;11376;50.932;4.442;2023-05-02T01:18:05;11.70;99.90
22418;DHT22;11376;50.932;4.442;2023-05-02T01:20:32;11.70;99.90
22418;DHT22;11376;50.932;4.442;2023-05-02T01:23:02;11.70;99.90
22418;DHT22;11376;50.932;4.442;2023-05-02T01:25:35;11.60;99.90
22418;DHT22;11376;50.932;4.442;2023-05-02T01:30:27;11.40;99.90
22418;DHT22;11376;50.932;4.442;2023-05-02T01:32:56;11.30;99.90
22418;DHT22;11376;50.932;4.442;2023-05-02T01:35:22;11.30;99.90
22418;DHT22;11376;50.932;4.442;2023-05-02T01:37:48;11.10;99.90
22418;DHT22;11376;50.932;4.442;2023-05-02T01:40:16;11.20;99.90
22418;DHT22;11376;50.932;4.442;2023-05-02T01:42:42;11.10;99.90
22418;DHT22;11376;50.932;4.442;2023-05-02T01:45:09;11.20;99.90
22418;DHT22;11376;50.932;4.442;2023-05-02T01:47:35;11.30;99.90
22418;DHT22;11376;50.932;4.442;2023-05-02T01:50:05;11.20;99.90
22418;DHT22;11376;50.932;4.442;2023-05-02T01:52:32;11.20;99.90
22418;DHT22;11376;50.932;4.442;2023-05-02T01:54:58;11.10;99.90
22418;DHT22;11376;50.932;4.442;2023-05-02T01:57:24;11.10;99.90
22418;DHT22;11376;50.932;4.442;2023-05-02T01:59:50;11.20;99.90
22418;DHT22;11376;50.932;4.442;2023-05-02T02:02:16;11.20;99.90
22418;DHT22;11376;50.932;4.442;2023-05-02T02:04:42;11.20;99.90
22418;DHT22;11376;50.932;4.442;2023-05-02T02:07:08;11.20;99.90
22418;DHT22;11376;50.932;4.442;2023-05-02T02:09:35;11.10;99.90
22418;DHT22;11376;50.932;4.442;2023-05-02T02:12:02;11.00;99.90
22418;DHT22;11376;50.932;4.442;2023-05-02T02:14:32;10.90;99.90
22418;DHT22;11376;50.932;4.442;2023-05-02T02:16:58;10.90;99.90
22418;DHT22;11376;50.932;4.442;2023-05-02T02:19:25;10.90;99.90
22418;DHT22;11376;50.932;4.442;2023-05-02T02:21:52;10.80;99.90
22418;DHT22;11376;50.932;4.442;2023-05-02T02:24:19;10.80;99.90
22418;DHT22;11376;50.932;4.442;2023-05-02T02:26:46;10.80;99.90
22418;DHT22;11376;50.932;4.442;2023-05-02T02:29:11;10.80;99.90
22418;DHT22;11376;50.932;4.442;2023-05-02T02:31:37;10.80;99.90
22418;DHT22;11376;50.932;4.442;2023-05-02T02:34:04;10.80;99.90
22418;DHT22;11376;50.932;4.442;2023-05-02T02:36:32;10.90;99.90
22418;DHT22;11376;50.932;4.442;2023-05-02T02:41:26;11.00;99.90
22418;DHT22;11376;50.932;4.442;2023-05-02T02:43:56;10.90;99.90
22418;DHT22;11376;50.932;4.442;2023-05-02T02:46:40;10.90;99.90
22418;DHT22;11376;50.932;4.442;2023-05-02T02:51:49;11.00;99.90
22418;DHT22;11376;50.932;4.442;2023-05-02T02:54:18;11.00;99.90
22418;DHT22;11376;50.932;4.442;2023-05-02T02:56:46;11.10;99.90
22418;DHT22;11376;50.932;4.442;2023-05-02T02:59:22;11.20;99.90
22418;DHT22;11376;50.932;4.442;2023-05-02T03:01:52;11.20;99.90
22418;DHT22;11376;50.932;4.442;2023-05-02T03:04:21;11.30;99.90
22418;DHT22;11376;50.932;4.442;2023-05-02T03:06:48;11.30;99.90
22418;DHT22;11376;50.932;4.442;2023-05-02T03:09:17;11.30;99.90
22418;DHT22;11376;50.932;4.442;2023-05-02T03:11:43;11.20;99.90
22418;DHT22;11376;50.932;4.442;2023-05-02T03:14:10;11.20;99.90
22418;DHT22;11376;50.932;4.442;2023-05-02T03:19:02;11.10;99.90
22418;DHT22;11376;50.932;4.442;2023-05-02T03:21:28;11.00;99.90
22418;DHT22;11376;50.932;4.442;2023-05-02T03:23:59;11.00;99.90
22418;DHT22;11376;50.932;4.442;2023-05-02T03:26:25;11.00;99.90
22418;DHT22;11376;50.932;4.442;2023-05-02T03:28:51;10.80;99.90
22418;DHT22;11376;50.932;4.442;2023-05-02T03:31:16;10.80;99.90
22418;DHT22;11376;50.932;4.442;2023-05-02T03:33:42;10.70;99.90
22418;DHT22;11376;50.932;4.442;2023-05-02T03:36:07;10.70;99.90
22418;DHT22;11376;50.932;4.442;2023-05-02T03:38:33;10.70;99.90
22418;DHT22;11376;50.932;4.442;2023-05-02T03:40:59;10.70;99.90
22418;DHT22;11376;50.932;4.442;2023-05-02T03:43:24;10.70;99.90
22418;DHT22;11376;50.932;4.442;2023-05-02T03:45:50;10.70;99.90
22418;DHT22;11376;50.932;4.442;2023-05-02T03:48:15;10.70;99.90
22418;DHT22;11376;50.932;4.442;2023-05-02T03:50:41;10.70;99.90
22418;DHT22;11376;50.932;4.442;2023-05-02T03:53:08;10.80;99.90
22418;DHT22;11376;50.932;4.442;2023-05-02T03:55:40;10.90;99.90
22418;DHT22;11376;50.932;4.442;2023-05-02T03:58:06;10.80;99.90
22418;DHT22;11376;50.932;4.442;2023-05-02T04:00:31;10.70;99.90
22418;DHT22;11376;50.932;4.442;2023-05-02T04:02:59;10.70;99.90
22418;DHT22;11376;50.932;4.442;2023-05-02T04:05:24;10.60;99.90
22418;DHT22;11376;50.932;4.442;2023-05-02T04:07:50;10.60;99.90
22418;DHT22;11376;50.932;4.442;2023-05-02T04:10:15;10.60;99.90
22418;DHT22;11376;50.932;4.442;2023-05-02T04:12:42;10.50;99.90
22418;DHT22;11376;50.932;4.442;2023-05-02T04:15:08;10.60;99.90
22418;DHT22;11376;50.932;4.442;2023-05-02T04:17:34;10.60;99.90
22418;DHT22;11376;50.932;4.442;2023-05-02T04:19:59;10.70;99.90
22418;DHT22;11376;50.932;4.442;2023-05-02T04:22:25;10.70;99.90
22418;DHT22;11376;50.932;4.442;2023-05-02T04:24:50;10.60;99.90
22418;DHT22;11376;50.932;4.442;2023-05-02T04:27:16;10.50;99.90
22418;DHT22;11376;50.932;4.442;2023-05-02T04:29:41;10.40;99.90
22418;DHT22;11376;50.932;4.442;2023-05-02T04:32:07;10.40;99.90
22418;DHT22;11376;50.932;4.442;2023-05-02T04:34:32;10.50;99.90
22418;DHT22;11376;50.932;4.442;2023-05-02T04:36:59;10.70;99.90
22418;DHT22;11376;50.932;4.442;2023-05-02T04:39:25;10.70;99.90
22418;DHT22;11376;50.932;4.442;2023-05-02T04:41:50;10.70;99.90
22418;DHT22;11376;50.932;4.442;2023-05-02T04:44:16;10.60;99.90
22418;DHT22;11376;50.932;4.442;2023-05-02T04:46:42;10.60;99.90
22418;DHT22;11376;50.932;4.442;2023-05-02T04:49:07;10.60;99.90
22418;DHT22;11376;50.932;4.442;2023-05-02T04:51:34;10.70;99.90
22418;DHT22;11376;50.932;4.442;2023-05-02T04:53:59;10.80;99.90
22418;DHT22;11376;50.932;4.442;2023-05-02T04:56:25;11.00;99.90
22418;DHT22;11376;50.932;4.442;2023-05-02T04:58:51;11.10;99.90
22418;DHT22;11376;50.932;4.442;2023-05-02T05:01:16;11.20;99.90
22418;DHT22;11376;50.932;4.442;2023-05-02T05:03:42;11.20;99.90
22418;DHT22;11376;50.932;4.442;2023-05-02T05:06:08;11.10;99.90
22418;DHT22;11376;50.932;4.442;2023-05-02T05:08:33;10.90;99.90
22418;DHT22;11376;50.932;4.442;2023-05-02T05:10:59;10.90;99.90
22418;DHT22;11376;50.932;4.442;2023-05-02T05:13:24;11.00;99.90
22418;DHT22;11376;50.932;4.442;2023-05-02T05:15:53;11.10;99.90
22418;DHT22;11376;50.932;4.442;2023-05-02T05:18:19;11.20;99.90
22418;DHT22;11376;50.932;4.442;2023-05-02T05:20:44;11.30;99.90
22418;DHT22;11376;50.932;4.442;2023-05-02T05:23:10;11.30;99.90
22418;DHT22;11376;50.932;4.442;2023-05-02T05:25:35;11.40;99.90
22418;DHT22;11376;50.932;4.442;2023-05-02T05:28:01;11.40;99.90
22418;DHT22;11376;50.932;4.442;2023-05-02T05:30:26;11.30;99.90
22418;DHT22;11376;50.932;4.442;2023-05-02T05:32:52;11.10;99.90
22418;DHT22;11376;50.932;4.442;2023-05-02T05:35:17;11.10;99.90
22418;DHT22;11376;50.932;4.442;2023-05-02T05:37:43;11.00;99.90
22418;DHT22;11376;50.932;4.442;2023-05-02T05:40:09;11.00;99.90
22418;DHT22;11376;50.932;4.442;2023-05-02T05:42:34;11.10;99.90
22418;DHT22;11376;50.932;4.442;2023-05-02T05:45:00;11.30;99.90
22418;DHT22;11376;50.932;4.442;2023-05-02T05:47:26;11.30;99.90
22418;DHT22;11376;50.932;4.442;2023-05-02T05:49:52;11.50;99.90
22418;DHT22;11376;50.932;4.442;2023-05-02T05:52:18;11.70;99.90
22418;DHT22;11376;50.932;4.442;2023-05-02T05:54:43;11.80;99.90
22418;DHT22;11376;50.932;4.442;2023-05-02T05:57:09;12.00;99.90
22418;DHT22;11376;50.932;4.442;2023-05-02T05:59:35;12.20;99.90
22418;DHT22;11376;50.932;4.442;2023-05-02T06:02:00;12.40;99.90
22418;DHT22;11376;50.932;4.442;2023-05-02T06:04:26;12.50;99.90
22418;DHT22;11376;50.932;4.442;2023-05-02T06:06:51;12.50;99.90
22418;DHT22;11376;50.932;4.442;2023-05-02T06:09:18;12.60;99.90
22418;DHT22;11376;50.932;4.442;2023-05-02T06:11:44;12.70;99.90
22418;DHT22;11376;50.932;4.442;2023-05-02T06:14:09;12.70;99.90
22418;DHT22;11376;50.932;4.442;2023-05-02T06:16:35;12.70;99.90
22418;DHT22;11376;50.932;4.442;2023-05-02T06:19:00;12.70;99.90
22418;DHT22;11376;50.932;4.442;2023-05-02T06:21:26;12.70;99.90
22418;DHT22;11376;50.932;4.442;2023-05-02T06:23:52;12.70;99.90
22418;DHT22;11376;50.932;4.442;2023-05-02T06:26:17;12.80;99.90
22418;DHT22;11376;50.932;4.442;2023-05-02T06:28:43;12.80;99.90
22418;DHT22;11376;50.932;4.442;2023-05-02T06:31:08;12.70;99.90
22418;DHT22;11376;50.932;4.442;2023-05-02T06:33:34;12.80;99.90
22418;DHT22;11376;50.932;4.442;2023-05-02T06:36:00;13.00;99.90
22418;DHT22;11376;50.932;4.442;2023-05-02T06:38:25;12.90;99.90
22418;DHT22;11376;50.932;4.442;2023-05-02T06:40:51;13.10;99.90
22418;DHT22;11376;50.932;4.442;2023-05-02T06:43:16;13.10;99.90
22418;DHT22;11376;50.932;4.442;2023-05-02T06:45:42;13.30;99.90
22418;DHT22;11376;50.932;4.442;2023-05-02T06:48:08;13.40;99.90
22418;DHT22;11376;50.932;4.442;2023-05-02T06:50:33;13.60;99.90
22418;DHT22;11376;50.932;4.442;2023-05-02T06:52:59;13.70;99.90
22418;DHT22;11376;50.932;4.442;2023-05-02T06:55:25;13.60;99.90
22418;DHT22;11376;50.932;4.442;2023-05-02T06:57:51;13.40;99.90
22418;DHT22;11376;50.932;4.442;2023-05-02T07:00:16;13.40;99.90
22418;DHT22;11376;50.932;4.442;2023-05-02T07:02:43;13.50;99.90
22418;DHT22;11376;50.932;4.442;2023-05-02T07:05:09;13.50;99.90
22418;DHT22;11376;50.932;4.442;2023-05-02T07:07:34;13.50;99.90
22418;DHT22;11376;50.932;4.442;2023-05-02T07:10:00;13.50;99.90
22418;DHT22;11376;50.932;4.442;2023-05-02T07:12:25;13.50;99.90
22418;DHT22;11376;50.932;4.442;2023-05-02T07:14:51;13.60;99.90
22418;DHT22;11376;50.932;4.442;2023-05-02T07:17:17;13.60;99.90
22418;DHT22;11376;50.932;4.442;2023-05-02T07:19:42;13.80;99.90
22418;DHT22;11376;50.932;4.442;2023-05-02T07:22:08;13.90;99.90
22418;DHT22;11376;50.932;4.442;2023-05-02T07:24:33;14.00;99.90
22418;DHT22;11376;50.932;4.442;2023-05-02T07:26:59;14.20;99.90
22418;DHT22;11376;50.932;4.442;2023-05-02T07:29:25;14.30;99.90
22418;DHT22;11376;50.932;4.442;2023-05-02T07:31:50;14.10;99.90
22418;DHT22;11376;50.932;4.442;2023-05-02T07:34:16;13.90;99.90
22418;DHT22;11376;50.932;4.442;2023-05-02T07:36:41;13.60;99.90
22418;DHT22;11376;50.932;4.442;2023-05-02T07:39:07;13.60;99.90
22418;DHT22;11376;50.932;4.442;2023-05-02T07:41:32;13.70;99.90
22418;DHT22;11376;50.932;4.442;2023-05-02T07:43:58;13.90;99.90
22418;DHT22;11376;50.932;4.442;2023-05-02T07:46:23;14.20;99.90
22418;DHT22;11376;50.932;4.442;2023-05-02T07:48:49;14.40;99.90
22418;DHT22;11376;50.932;4.442;2023-05-02T07:51:15;14.10;99.90
22418;DHT22;11376;50.932;4.442;2023-05-02T07:53:40;14.10;99.90
22418;DHT22;11376;50.932;4.442;2023-05-02T07:56:06;14.30;99.90
22418;DHT22;11376;50.932;4.442;2023-05-02T07:58:33;14.40;99.90
22418;DHT22;11376;50.932;4.442;2023-05-02T08:00:59;14.50;99.90
22418;DHT22;11376;50.932;4.442;2023-05-02T08:03:24;14.40;99.90
22418;DHT22;11376;50.932;4.442;2023-05-02T08:05:51;14.40;99.90
22418;DHT22;11376;50.932;4.442;2023-05-02T08:08:16;14.50;99.90
22418;DHT22;11376;50.932;4.442;2023-05-02T08:10:59;14.60;99.90
22418;DHT22;11376;50.932;4.442;2023-05-02T08:13:25;14.70;99.90
22418;DHT22;11376;50.932;4.442;2023-05-02T08:15:51;15.30;99.90
22418;DHT22;11376;50.932;4.442;2023-05-02T08:18:22;15.60;99.90
22418;DHT22;11376;50.932;4.442;2023-05-02T08:20:48;15.60;99.90
22418;DHT22;11376;50.932;4.442;2023-05-02T08:23:14;15.70;99.90
22418;DHT22;11376;50.932;4.442;2023-05-02T08:25:40;15.90;99.90
22418;DHT22;11376;50.932;4.442;2023-05-02T08:28:06;16.00;99.90
22418;DHT22;11376;50.932;4.442;2023-05-02T08:30:31;15.90;99.90
22418;DHT22;11376;50.932;4.442;2023-05-02T08:32:57;15.90;99.90
22418;DHT22;11376;50.932;4.442;2023-05-02T08:35:22;16.00;99.90
22418;DHT22;11376;50.932;4.442;2023-05-02T08:37:48;16.20;99.90
22418;DHT22;11376;50.932;4.442;2023-05-02T08:40:16;16.50;99.90
22418;DHT22;11376;50.932;4.442;2023-05-02T08:42:43;16.60;99.90
22418;DHT22;11376;50.932;4.442;2023-05-02T08:45:12;16.70;99.90
22418;DHT22;11376;50.932;4.442;2023-05-02T08:47:39;16.70;99.90
22418;DHT22;11376;50.932;4.442;2023-05-02T08:50:05;16.70;99.90
22418;DHT22;11376;50.932;4.442;2023-05-02T08:52:35;17.00;99.90
22418;DHT22;11376;50.932;4.442;2023-05-02T08:55:02;17.30;99.90
22418;DHT22;11376;50.932;4.442;2023-05-02T08:57:28;17.40;99.90
22418;DHT22;11376;50.932;4.442;2023-05-02T08:59:55;17.60;99.90
22418;DHT22;11376;50.932;4.442;2023-05-02T09:04:52;17.70;99.90
22418;DHT22;11376;50.932;4.442;2023-05-02T09:07:19;17.80;99.90
22418;DHT22;11376;50.932;4.442;2023-05-02T09:09:44;17.90;99.90
22418;DHT22;11376;50.932;4.442;2023-05-02T09:12:10;18.10;99.90
22418;DHT22;11376;50.932;4.442;2023-05-02T09:14:36;18.30;99.90
22418;DHT22;11376;50.932;4.442;2023-05-02T09:17:01;18.30;99.90
22418;DHT22;11376;50.932;4.442;2023-05-02T09:19:27;18.30;99.90
22418;DHT22;11376;50.932;4.442;2023-05-02T09:21:58;18.50;99.90
22418;DHT22;11376;50.932;4.442;2023-05-02T09:24:24;18.60;99.90
22418;DHT22;11376;50.932;4.442;2023-05-02T09:27:00;18.70;99.90
22418;DHT22;11376;50.932;4.442;2023-05-02T09:29:28;18.80;99.90
22418;DHT22;11376;50.932;4.442;2023-05-02T09:32:00;18.80;99.90
22418;DHT22;11376;50.932;4.442;2023-05-02T09:34:26;18.90;99.90
22418;DHT22;11376;50.932;4.442;2023-05-02T09:36:52;18.50;99.90
22418;DHT22;11376;50.932;4.442;2023-05-02T09:39:24;18.30;99.90
22418;DHT22;11376;50.932;4.442;2023-05-02T09:41:49;18.40;99.90
22418;DHT22;11376;50.932;4.442;2023-05-02T09:44:19;18.50;99.90
22418;DHT22;11376;50.932;4.442;2023-05-02T09:49:10;18.60;99.90
22418;DHT22;11376;50.932;4.442;2023-05-02T09:51:36;18.80;99.90
22418;DHT22;11376;50.932;4.442;2023-05-02T09:54:01;19.00;99.90
22418;DHT22;11376;50.932;4.442;2023-05-02T09:56:27;19.10;99.90
22418;DHT22;11376;50.932;4.442;2023-05-02T09:59:14;19.10;99.90
22418;DHT22;11376;50.932;4.442;2023-05-02T10:01:40;19.10;99.90
22418;DHT22;11376;50.932;4.442;2023-05-02T10:04:10;19.40;99.90
22418;DHT22;11376;50.932;4.442;2023-05-02T10:06:43;19.80;99.90
22418;DHT22;11376;50.932;4.442;2023-05-02T10:09:09;20.10;99.90
22418;DHT22;11376;50.932;4.442;2023-05-02T10:11:36;20.20;99.90
22418;DHT22;11376;50.932;4.442;2023-05-02T10:14:03;19.90;99.90
22418;DHT22;11376;50.932;4.442;2023-05-02T10:16:30;18.80;99.90
22418;DHT22;11376;50.932;4.442;2023-05-02T10:18:57;18.50;99.90
22418;DHT22;11376;50.932;4.442;2023-05-02T10:21:27;18.50;99.90
22418;DHT22;11376;50.932;4.442;2023-05-02T10:23:55;18.40;99.90
22418;DHT22;11376;50.932;4.442;2023-05-02T10:26:21;17.70;99.90
22418;DHT22;11376;50.932;4.442;2023-05-02T10:28:48;17.60;99.90
22418;DHT22;11376;50.932;4.442;2023-05-02T10:31:14;18.30;99.90
22418;DHT22;11376;50.932;4.442;2023-05-02T10:33:40;19.00;99.90
22418;DHT22;11376;50.932;4.442;2023-05-02T10:36:07;19.40;99.90
22418;DHT22;11376;50.932;4.442;2023-05-02T10:38:33;19.90;99.90
22418;DHT22;11376;50.932;4.442;2023-05-02T10:41:02;20.40;99.90
22418;DHT22;11376;50.932;4.442;2023-05-02T10:43:33;20.40;99.90
22418;DHT22;11376;50.932;4.442;2023-05-02T10:45:58;20.20;99.90
22418;DHT22;11376;50.932;4.442;2023-05-02T10:48:25;20.20;99.90
22418;DHT22;11376;50.932;4.442;2023-05-02T10:53:23;21.20;99.90
22418;DHT22;11376;50.932;4.442;2023-05-02T10:58:33;24.50;92.40
22418;DHT22;11376;50.932;4.442;2023-05-02T11:03:52;26.60;75.70
22418;DHT22;11376;50.932;4.442;2023-05-02T11:06:18;26.60;71.70
22418;DHT22;11376;50.932;4.442;2023-05-02T11:08:43;26.60;70.90
22418;DHT22;11376;50.932;4.442;2023-05-02T11:13:54;27.30;65.70
22418;DHT22;11376;50.932;4.442;2023-05-02T11:16:19;26.30;67.20
22418;DHT22;11376;50.932;4.442;2023-05-02T11:18:57;26.40;66.10
22418;DHT22;11376;50.932;4.442;2023-05-02T11:21:24;25.90;66.40
22418;DHT22;11376;50.932;4.442;2023-05-02T11:23:49;25.80;67.00
22418;DHT22;11376;50.932;4.442;2023-05-02T11:26:21;24.50;67.90
22418;DHT22;11376;50.932;4.442;2023-05-02T11:28:47;24.20;70.20
22418;DHT22;11376;50.932;4.442;2023-05-02T11:33:54;28.00;61.50
22418;DHT22;11376;50.932;4.442;2023-05-02T11:36:27;27.80;59.90
22418;DHT22;11376;50.932;4.442;2023-05-02T11:38:53;28.40;59.60
22418;DHT22;11376;50.932;4.442;2023-05-02T11:41:19;29.40;56.60
22418;DHT22;11376;50.932;4.442;2023-05-02T11:43:45;28.70;57.20
22418;DHT22;11376;50.932;4.442;2023-05-02T11:46:10;30.60;54.40
22418;DHT22;11376;50.932;4.442;2023-05-02T11:48:36;32.30;50.60
22418;DHT22;11376;50.932;4.442;2023-05-02T11:51:02;32.90;47.40
22418;DHT22;11376;50.932;4.442;2023-05-02T11:53:29;33.00;46.20
22418;DHT22;11376;50.932;4.442;2023-05-02T11:56:02;33.40;44.60
22418;DHT22;11376;50.932;4.442;2023-05-02T11:58:29;33.00;43.40
22418;DHT22;11376;50.932;4.442;2023-05-02T12:00:56;31.60;44.10
22418;DHT22;11376;50.932;4.442;2023-05-02T12:05:48;27.40;48.90
22418;DHT22;11376;50.932;4.442;2023-05-02T12:08:17;26.50;51.40
22418;DHT22;11376;50.932;4.442;2023-05-02T12:10:43;26.80;52.50
22418;DHT22;11376;50.932;4.442;2023-05-02T12:13:10;28.10;49.20
22418;DHT22;11376;50.932;4.442;2023-05-02T12:15:35;28.50;47.50
22418;DHT22;11376;50.932;4.442;2023-05-02T12:18:01;26.30;50.10
22418;DHT22;11376;50.932;4.442;2023-05-02T12:20:27;25.40;52.20
22418;DHT22;11376;50.932;4.442;2023-05-02T12:22:53;26.50;50.10
22418;DHT22;11376;50.932;4.442;2023-05-02T12:25:18;27.40;49.20
22418;DHT22;11376;50.932;4.442;2023-05-02T12:28:00;28.40;47.40
22418;DHT22;11376;50.932;4.442;2023-05-02T12:30:26;28.70;47.30
22418;DHT22;11376;50.932;4.442;2023-05-02T12:32:54;29.70;45.30
22418;DHT22;11376;50.932;4.442;2023-05-02T12:35:20;29.20;45.70
22418;DHT22;11376;50.932;4.442;2023-05-02T12:37:47;27.70;48.40
22418;DHT22;11376;50.932;4.442;2023-05-02T12:40:15;29.20;48.40
22418;DHT22;11376;50.932;4.442;2023-05-02T12:42:41;30.70;44.60
22418;DHT22;11376;50.932;4.442;2023-05-02T12:45:17;30.90;44.30
22418;DHT22;11376;50.932;4.442;2023-05-02T12:47:45;30.70;43.60
22418;DHT22;11376;50.932;4.442;2023-05-02T12:50:11;30.00;44.20
22418;DHT22;11376;50.932;4.442;2023-05-02T12:52:46;29.40;45.80
22418;DHT22;11376;50.932;4.442;2023-05-02T12:57:41;27.50;47.00
22418;DHT22;11376;50.932;4.442;2023-05-02T13:00:07;26.80;48.30
22418;DHT22;11376;50.932;4.442;2023-05-02T13:02:32;25.20;50.20
22418;DHT22;11376;50.932;4.442;2023-05-02T13:04:58;24.30;52.20
22418;DHT22;11376;50.932;4.442;2023-05-02T13:07:23;23.10;53.90
22418;DHT22;11376;50.932;4.442;2023-05-02T13:09:49;22.50;55.10
22418;DHT22;11376;50.932;4.442;2023-05-02T13:12:15;21.80;58.00
22418;DHT22;11376;50.932;4.442;2023-05-02T13:14:40;22.30;58.70
22418;DHT22;11376;50.932;4.442;2023-05-02T13:17:06;23.90;55.10
22418;DHT22;11376;50.932;4.442;2023-05-02T13:19:33;24.40;53.70
22418;DHT22;11376;50.932;4.442;2023-05-02T13:21:58;24.70;53.30
22418;DHT22;11376;50.932;4.442;2023-05-02T13:24:24;24.80;52.60
22418;DHT22;11376;50.932;4.442;2023-05-02T13:26:50;25.20;51.90
22418;DHT22;11376;50.932;4.442;2023-05-02T13:29:15;25.90;51.50
22418;DHT22;11376;50.932;4.442;2023-05-02T13:31:41;25.60;51.00
22418;DHT22;11376;50.932;4.442;2023-05-02T13:34:07;25.00;52.30
22418;DHT22;11376;50.932;4.442;2023-05-02T13:36:32;25.30;51.60
22418;DHT22;11376;50.932;4.442;2023-05-02T13:38:58;25.40;51.60
22418;DHT22;11376;50.932;4.442;2023-05-02T13:41:23;26.10;51.40
22418;DHT22;11376;50.932;4.442;2023-05-02T13:43:49;27.10;49.10
22418;DHT22;11376;50.932;4.442;2023-05-02T13:46:15;27.70;48.40
22418;DHT22;11376;50.932;4.442;2023-05-02T13:48:40;27.00;47.30
22418;DHT22;11376;50.932;4.442;2023-05-02T13:51:07;26.90;48.20
22418;DHT22;11376;50.932;4.442;2023-05-02T13:53:32;27.40;47.60
22418;DHT22;11376;50.932;4.442;2023-05-02T13:55:58;29.00;46.20
22418;DHT22;11376;50.932;4.442;2023-05-02T13:58:23;28.70;44.90
22418;DHT22;11376;50.932;4.442;2023-05-02T14:00:49;30.20;43.60
22418;DHT22;11376;50.932;4.442;2023-05-02T14:03:16;29.40;43.50
22418;DHT22;11376;50.932;4.442;2023-05-02T14:05:41;30.10;42.80
22418;DHT22;11376;50.932;4.442;2023-05-02T14:08:08;30.10;40.80
22418;DHT22;11376;50.932;4.442;2023-05-02T14:10:33;31.20;41.70
22418;DHT22;11376;50.932;4.442;2023-05-02T14:13:02;30.70;42.00
22418;DHT22;11376;50.932;4.442;2023-05-02T14:15:28;31.80;42.10
22418;DHT22;11376;50.932;4.442;2023-05-02T14:17:53;31.50;40.90
22418;DHT22;11376;50.932;4.442;2023-05-02T14:20:19;31.70;40.80
22418;DHT22;11376;50.932;4.442;2023-05-02T14:22:44;32.80;39.40
22418;DHT22;11376;50.932;4.442;2023-05-02T14:25:10;31.50;39.90
22418;DHT22;11376;50.932;4.442;2023-05-02T14:27:35;30.30;41.90
22418;DHT22;11376;50.932;4.442;2023-05-02T14:30:01;27.10;44.20
22418;DHT22;11376;50.932;4.442;2023-05-02T14:32:26;25.50;48.80
22418;DHT22;11376;50.932;4.442;2023-05-02T14:34:52;26.30;47.90
22418;DHT22;11376;50.932;4.442;2023-05-02T14:37:17;26.80;47.60
22418;DHT22;11376;50.932;4.442;2023-05-02T14:39:43;27.30;46.20
22418;DHT22;11376;50.932;4.442;2023-05-02T14:42:10;26.40;45.80
22418;DHT22;11376;50.932;4.442;2023-05-02T14:44:35;25.20;47.30
22418;DHT22;11376;50.932;4.442;2023-05-02T14:47:01;24.40;49.70
22418;DHT22;11376;50.932;4.442;2023-05-02T14:49:27;23.50;50.80
22418;DHT22;11376;50.932;4.442;2023-05-02T14:51:52;23.50;51.50
22418;DHT22;11376;50.932;4.442;2023-05-02T14:54:18;23.60;50.80
22418;DHT22;11376;50.932;4.442;2023-05-02T14:56:44;23.50;50.30
22418;DHT22;11376;50.932;4.442;2023-05-02T14:59:10;23.70;50.20
22418;DHT22;11376;50.932;4.442;2023-05-02T15:01:35;23.10;51.60
22418;DHT22;11376;50.932;4.442;2023-05-02T15:04:02;22.80;51.90
22418;DHT22;11376;50.932;4.442;2023-05-02T15:06:28;22.40;53.50
22418;DHT22;11376;50.932;4.442;2023-05-02T15:08:54;23.00;52.70
22418;DHT22;11376;50.932;4.442;2023-05-02T15:11:19;23.40;51.60
22418;DHT22;11376;50.932;4.442;2023-05-02T15:13:45;23.30;51.20
22418;DHT22;11376;50.932;4.442;2023-05-02T15:16:11;23.20;51.30
22418;DHT22;11376;50.932;4.442;2023-05-02T15:18:37;23.70;50.60
22418;DHT22;11376;50.932;4.442;2023-05-02T15:21:02;24.70;49.70
22418;DHT22;11376;50.932;4.442;2023-05-02T15:23:28;25.80;48.40
22418;DHT22;11376;50.932;4.442;2023-05-02T15:25:53;25.60;47.40
22418;DHT22;11376;50.932;4.442;2023-05-02T15:28:19;25.70;47.30
22418;DHT22;11376;50.932;4.442;2023-05-02T15:30:45;26.40;46.50
22418;DHT22;11376;50.932;4.442;2023-05-02T15:33:13;27.00;45.40
22418;DHT22;11376;50.932;4.442;2023-05-02T15:35:38;27.50;44.90
22418;DHT22;11376;50.932;4.442;2023-05-02T15:38:04;27.50;44.00
22418;DHT22;11376;50.932;4.442;2023-05-02T15:40:31;27.50;44.20
22418;DHT22;11376;50.932;4.442;2023-05-02T15:42:56;27.00;43.80
22418;DHT22;11376;50.932;4.442;2023-05-02T15:45:22;27.20;44.30
22418;DHT22;11376;50.932;4.442;2023-05-02T15:47:47;27.20;43.80
22418;DHT22;11376;50.932;4.442;2023-05-02T15:50:13;25.70;45.60
22418;DHT22;11376;50.932;4.442;2023-05-02T15:52:38;25.60;45.80
22418;DHT22;11376;50.932;4.442;2023-05-02T15:55:04;24.90;46.60
22418;DHT22;11376;50.932;4.442;2023-05-02T15:57:30;24.70;47.10
22418;DHT22;11376;50.932;4.442;2023-05-02T15:59:55;23.80;48.10
22418;DHT22;11376;50.932;4.442;2023-05-02T16:02:21;23.30;49.10
22418;DHT22;11376;50.932;4.442;2023-05-02T16:04:46;24.50;47.90
22418;DHT22;11376;50.932;4.442;2023-05-02T16:07:12;25.80;46.50